sensor_id;sensor_type;location;lat;lon;timestamp;pressure;altitude;pressure_sealevel;temperature;humidity
14067;BME280;7108;42.684;23.350;2022-11-24T00:02:13;94263.75;;;8.23;100.00
14067;BME280;7108;42.684;23.350;2022-11-24T00:04:38;94310.94;;;8.27;100.00
14067;BME280;7108;42.684;23.350;2022-11-24T00:07:04;94273.91;;;8.10;100.00
14067;BME280;7108;42.684;23.350;2022-11-24T00:09:29;94290.47;;;8.16;100.00
14067;BME280;7108;42.684;23.350;2022-11-24T00:11:55;94298.69;;;8.26;100.00
14067;BME280;7108;42.684;23.350;2022-11-24T00:14:20;94268.09;;;8.05;100.00
14067;BME280;7108;42.684;23.350;2022-11-24T00:16:46;94271.13;;;8.03;100.00
14067;BME280;7108;42.684;23.350;2022-11-24T00:19:12;94278.72;;;7.98;100.00
14067;BME280;7108;42.684;23.350;2022-11-24T00:21:37;94256.31;;;7.83;100.00
14067;BME280;7108;42.684;23.350;2022-11-24T00:24:03;94289.16;;;8.06;100.00
14067;BME280;7108;42.684;23.350;2022-11-24T00:26:31;94319.41;;;8.29;100.00
14067;BME280;7108;42.684;23.350;2022-11-24T00:28:59;94332.06;;;8.29;100.00
14067;BME280;7108;42.684;23.350;2022-11-24T00:31:28;94312.34;;;8.18;100.00
14067;BME280;7108;42.684;23.350;2022-11-24T00:33:57;94253.16;;;7.78;100.00
14067;BME280;7108;42.684;23.350;2022-11-24T00:36:24;94281.69;;;7.89;100.00
14067;BME280;7108;42.684;23.350;2022-11-24T00:39:01;94291.47;;;8.04;100.00
14067;BME280;7108;42.684;23.350;2022-11-24T00:41:28;94305.81;;;8.15;100.00
14067;BME280;7108;42.684;23.350;2022-11-24T00:43:54;94327.19;;;8.12;100.00
14067;BME280;7108;42.684;23.350;2022-11-24T00:46:20;94297.47;;;7.69;100.00
14067;BME280;7108;42.684;23.350;2022-11-24T00:48:46;94287.88;;;7.68;100.00
14067;BME280;7108;42.684;23.350;2022-11-24T00:51:13;94296.16;;;7.85;100.00
14067;BME280;7108;42.684;23.350;2022-11-24T00:53:39;94346.97;;;8.00;100.00
14067;BME280;7108;42.684;23.350;2022-11-24T00:56:06;94338.88;;;7.71;100.00
14067;BME280;7108;42.684;23.350;2022-11-24T00:58:36;94341.38;;;7.86;100.00
14067;BME280;7108;42.684;23.350;2022-11-24T01:03:34;94335.19;;;7.82;100.00
14067;BME280;7108;42.684;23.350;2022-11-24T01:06:06;94329.06;;;7.82;100.00
14067;BME280;7108;42.684;23.350;2022-11-24T01:08:33;94300.84;;;7.62;100.00
14067;BME280;7108;42.684;23.350;2022-11-24T01:11:09;94295.00;;;7.57;100.00
14067;BME280;7108;42.684;23.350;2022-11-24T01:13:35;94305.16;;;7.70;100.00
14067;BME280;7108;42.684;23.350;2022-11-24T01:16:01;94303.22;;;7.71;100.00
14067;BME280;7108;42.684;23.350;2022-11-24T01:18:26;94335.38;;;7.93;100.00
14067;BME280;7108;42.684;23.350;2022-11-24T01:20:52;94330.00;;;7.93;100.00
14067;BME280;7108;42.684;23.350;2022-11-24T01:23:17;94267.38;;;7.53;100.00
14067;BME280;7108;42.684;23.350;2022-11-24T01:25:42;94340.38;;;7.94;100.00
14067;BME280;7108;42.684;23.350;2022-11-24T01:28:08;94326.53;;;7.92;100.00
14067;BME280;7108;42.684;23.350;2022-11-24T01:30:34;94300.56;;;7.71;100.00
14067;BME280;7108;42.684;23.350;2022-11-24T01:32:59;94289.81;;;7.45;100.00
14067;BME280;7108;42.684;23.350;2022-11-24T01:35:24;94221.91;;;7.08;100.00
14067;BME280;7108;42.684;23.350;2022-11-24T01:37:50;94333.44;;;7.68;100.00
14067;BME280;7108;42.684;23.350;2022-11-24T01:40:16;94333.72;;;7.85;100.00
14067;BME280;7108;42.684;23.350;2022-11-24T01:42:49;94243.88;;;7.17;100.00
14067;BME280;7108;42.684;23.350;2022-11-24T01:47:53;94343.25;;;7.82;100.00
14067;BME280;7108;42.684;23.350;2022-11-24T01:50:19;94244.84;;;7.31;100.00
14067;BME280;7108;42.684;23.350;2022-11-24T01:52:49;94313.63;;;7.72;100.00
14067;BME280;7108;42.684;23.350;2022-11-24T01:55:22;94322.66;;;7.90;100.00
14067;BME280;7108;42.684;23.350;2022-11-24T02:00:21;94331.03;;;7.85;100.00
14067;BME280;7108;42.684;23.350;2022-11-24T02:02:47;94338.88;;;7.97;100.00
14067;BME280;7108;42.684;23.350;2022-11-24T02:05:20;94331.94;;;7.96;100.00
14067;BME280;7108;42.684;23.350;2022-11-24T02:07:49;94339.25;;;7.95;100.00
14067;BME280;7108;42.684;23.350;2022-11-24T02:10:16;94309.56;;;7.85;100.00
14067;BME280;7108;42.684;23.350;2022-11-24T02:12:44;94313.22;;;7.99;100.00
14067;BME280;7108;42.684;23.350;2022-11-24T02:15:11;94328.97;;;8.01;100.00
14067;BME280;7108;42.684;23.350;2022-11-24T02:17:38;94341.13;;;7.95;100.00
14067;BME280;7108;42.684;23.350;2022-11-24T02:20:07;94331.69;;;8.04;100.00
14067;BME280;7108;42.684;23.350;2022-11-24T02:23:03;94339.63;;;8.23;100.00
14067;BME280;7108;42.684;23.350;2022-11-24T02:25:54;94346.50;;;8.21;100.00
14067;BME280;7108;42.684;23.350;2022-11-24T02:28:26;94340.88;;;8.03;100.00
14067;BME280;7108;42.684;23.350;2022-11-24T02:30:53;94326.31;;;8.04;100.00
14067;BME280;7108;42.684;23.350;2022-11-24T02:33:19;94335.56;;;8.07;100.00
14067;BME280;7108;42.684;23.350;2022-11-24T02:35:46;94318.28;;;8.04;100.00
14067;BME280;7108;42.684;23.350;2022-11-24T02:38:12;94350.41;;;8.27;100.00
14067;BME280;7108;42.684;23.350;2022-11-24T02:40:41;94356.97;;;8.29;100.00
14067;BME280;7108;42.684;23.350;2022-11-24T02:43:11;94310.31;;;7.82;100.00
14067;BME280;7108;42.684;23.350;2022-11-24T02:45:38;94355.84;;;8.30;100.00
14067;BME280;7108;42.684;23.350;2022-11-24T02:48:04;94351.69;;;8.36;100.00
14067;BME280;7108;42.684;23.350;2022-11-24T02:50:30;94336.56;;;8.21;100.00
14067;BME280;7108;42.684;23.350;2022-11-24T02:52:55;94313.03;;;8.11;100.00
14067;BME280;7108;42.684;23.350;2022-11-24T02:55:20;94337.38;;;8.25;100.00
14067;BME280;7108;42.684;23.350;2022-11-24T02:57:47;94350.16;;;8.35;100.00
14067;BME280;7108;42.684;23.350;2022-11-24T03:00:13;94275.78;;;7.77;100.00
14067;BME280;7108;42.684;23.350;2022-11-24T03:02:39;94345.91;;;8.34;100.00
14067;BME280;7108;42.684;23.350;2022-11-24T03:05:05;94267.03;;;7.83;100.00
14067;BME280;7108;42.684;23.350;2022-11-24T03:07:30;94319.63;;;8.17;100.00
14067;BME280;7108;42.684;23.350;2022-11-24T03:09:56;94349.81;;;8.40;100.00
14067;BME280;7108;42.684;23.350;2022-11-24T03:12:21;94313.03;;;8.11;100.00
14067;BME280;7108;42.684;23.350;2022-11-24T03:14:47;94314.53;;;8.09;100.00
14067;BME280;7108;42.684;23.350;2022-11-24T03:17:12;94363.25;;;8.40;100.00
14067;BME280;7108;42.684;23.350;2022-11-24T03:19:38;94338.00;;;8.15;100.00
14067;BME280;7108;42.684;23.350;2022-11-24T03:22:03;94341.88;;;8.18;100.00
14067;BME280;7108;42.684;23.350;2022-11-24T03:24:29;94341.81;;;8.14;100.00
14067;BME280;7108;42.684;23.350;2022-11-24T03:26:54;94372.03;;;8.37;100.00
14067;BME280;7108;42.684;23.350;2022-11-24T03:29:19;94360.28;;;8.19;100.00
14067;BME280;7108;42.684;23.350;2022-11-24T03:31:46;94340.13;;;8.06;100.00
14067;BME280;7108;42.684;23.350;2022-11-24T03:34:11;94386.97;;;8.35;100.00
14067;BME280;7108;42.684;23.350;2022-11-24T03:36:36;94382.81;;;8.15;100.00
14067;BME280;7108;42.684;23.350;2022-11-24T03:39:02;94367.50;;;8.15;100.00
14067;BME280;7108;42.684;23.350;2022-11-24T03:41:27;94401.50;;;8.34;100.00
14067;BME280;7108;42.684;23.350;2022-11-24T03:43:53;94379.16;;;8.26;100.00
14067;BME280;7108;42.684;23.350;2022-11-24T03:46:18;94353.31;;;8.15;100.00
14067;BME280;7108;42.684;23.350;2022-11-24T03:48:44;94337.44;;;8.06;100.00
14067;BME280;7108;42.684;23.350;2022-11-24T03:51:09;94361.09;;;8.23;100.00
14067;BME280;7108;42.684;23.350;2022-11-24T03:53:35;94366.50;;;8.27;100.00
14067;BME280;7108;42.684;23.350;2022-11-24T03:56:00;94380.44;;;8.36;100.00
14067;BME280;7108;42.684;23.350;2022-11-24T03:58:26;94389.34;;;8.43;100.00
14067;BME280;7108;42.684;23.350;2022-11-24T04:00:53;94403.50;;;8.40;100.00
14067;BME280;7108;42.684;23.350;2022-11-24T04:03:19;94410.88;;;8.47;100.00
14067;BME280;7108;42.684;23.350;2022-11-24T04:05:48;94412.44;;;8.48;100.00
14067;BME280;7108;42.684;23.350;2022-11-24T04:08:14;94399.13;;;8.29;100.00
14067;BME280;7108;42.684;23.350;2022-11-24T04:10:40;94431.97;;;8.48;100.00
14067;BME280;7108;42.684;23.350;2022-11-24T04:13:12;94386.28;;;8.15;100.00
14067;BME280;7108;42.684;23.350;2022-11-24T04:15:38;94421.34;;;8.55;100.00
14067;BME280;7108;42.684;23.350;2022-11-24T04:18:05;94422.84;;;8.52;100.00
14067;BME280;7108;42.684;23.350;2022-11-24T04:20:31;94412.00;;;8.46;100.00
14067;BME280;7108;42.684;23.350;2022-11-24T04:22:57;94402.69;;;8.36;100.00
14067;BME280;7108;42.684;23.350;2022-11-24T04:25:22;94391.84;;;8.29;100.00
14067;BME280;7108;42.684;23.350;2022-11-24T04:27:54;94354.22;;;8.00;100.00
14067;BME280;7108;42.684;23.350;2022-11-24T04:30:21;94356.53;;;8.01;100.00
14067;BME280;7108;42.684;23.350;2022-11-24T04:32:47;94435.56;;;8.55;100.00
14067;BME280;7108;42.684;23.350;2022-11-24T04:35:12;94399.19;;;8.32;100.00
14067;BME280;7108;42.684;23.350;2022-11-24T04:37:38;94413.25;;;8.26;100.00
14067;BME280;7108;42.684;23.350;2022-11-24T04:40:05;94451.06;;;8.43;100.00
14067;BME280;7108;42.684;23.350;2022-11-24T04:42:31;94397.31;;;8.10;100.00
14067;BME280;7108;42.684;23.350;2022-11-24T04:44:57;94418.94;;;8.47;100.00
14067;BME280;7108;42.684;23.350;2022-11-24T04:47:24;94445.97;;;8.60;100.00
14067;BME280;7108;42.684;23.350;2022-11-24T04:49:49;94413.47;;;8.40;100.00
14067;BME280;7108;42.684;23.350;2022-11-24T04:52:16;94437.28;;;8.70;100.00
14067;BME280;7108;42.684;23.350;2022-11-24T04:54:42;94453.41;;;8.74;100.00
14067;BME280;7108;42.684;23.350;2022-11-24T04:57:28;94405.91;;;8.48;100.00
14067;BME280;7108;42.684;23.350;2022-11-24T04:59:54;94400.94;;;8.47;100.00
14067;BME280;7108;42.684;23.350;2022-11-24T05:02:20;94423.00;;;8.63;100.00
14067;BME280;7108;42.684;23.350;2022-11-24T05:04:46;94449.28;;;8.80;100.00
14067;BME280;7108;42.684;23.350;2022-11-24T05:07:12;94436.91;;;8.72;100.00
14067;BME280;7108;42.684;23.350;2022-11-24T05:09:38;94415.28;;;8.61;100.00
14067;BME280;7108;42.684;23.350;2022-11-24T05:12:23;94451.69;;;8.88;100.00
14067;BME280;7108;42.684;23.350;2022-11-24T05:14:50;94432.31;;;8.72;100.00
14067;BME280;7108;42.684;23.350;2022-11-24T05:17:15;94435.38;;;8.71;100.00
14067;BME280;7108;42.684;23.350;2022-11-24T05:19:41;94434.19;;;8.68;100.00
14067;BME280;7108;42.684;23.350;2022-11-24T05:22:06;94443.09;;;8.76;100.00
14067;BME280;7108;42.684;23.350;2022-11-24T05:24:31;94409.84;;;8.54;100.00
14067;BME280;7108;42.684;23.350;2022-11-24T05:26:57;94439.19;;;8.70;100.00
14067;BME280;7108;42.684;23.350;2022-11-24T05:29:22;94447.38;;;8.80;100.00
14067;BME280;7108;42.684;23.350;2022-11-24T05:31:48;94433.75;;;8.66;100.00
14067;BME280;7108;42.684;23.350;2022-11-24T05:34:13;94453.78;;;8.72;100.00
14067;BME280;7108;42.684;23.350;2022-11-24T05:36:39;94462.38;;;8.81;100.00
14067;BME280;7108;42.684;23.350;2022-11-24T05:39:17;94432.56;;;8.64;100.00
14067;BME280;7108;42.684;23.350;2022-11-24T05:41:43;94470.50;;;8.88;100.00
14067;BME280;7108;42.684;23.350;2022-11-24T05:44:08;94412.06;;;8.49;100.00
14067;BME280;7108;42.684;23.350;2022-11-24T05:46:34;94436.00;;;8.61;100.00
14067;BME280;7108;42.684;23.350;2022-11-24T05:48:59;94481.72;;;8.97;100.00
14067;BME280;7108;42.684;23.350;2022-11-24T05:51:25;94477.06;;;8.91;100.00
14067;BME280;7108;42.684;23.350;2022-11-24T05:53:50;94451.09;;;8.72;100.00
14067;BME280;7108;42.684;23.350;2022-11-24T05:56:16;94456.75;;;8.64;100.00
14067;BME280;7108;42.684;23.350;2022-11-24T05:58:41;94351.66;;;8.07;100.00
14067;BME280;7108;42.684;23.350;2022-11-24T06:01:07;94483.56;;;8.90;100.00
14067;BME280;7108;42.684;23.350;2022-11-24T06:03:32;94477.44;;;8.89;100.00
14067;BME280;7108;42.684;23.350;2022-11-24T06:06:00;94485.16;;;8.94;100.00
14067;BME280;7108;42.684;23.350;2022-11-24T06:08:29;94475.06;;;8.84;100.00
14067;BME280;7108;42.684;23.350;2022-11-24T06:10:58;94443.28;;;8.60;100.00
14067;BME280;7108;42.684;23.350;2022-11-24T06:13:41;94479.19;;;8.78;100.00
14067;BME280;7108;42.684;23.350;2022-11-24T06:16:07;94505.47;;;8.92;100.00
14067;BME280;7108;42.684;23.350;2022-11-24T06:18:32;94496.28;;;8.93;100.00
14067;BME280;7108;42.684;23.350;2022-11-24T06:20:58;94507.50;;;9.02;100.00
14067;BME280;7108;42.684;23.350;2022-11-24T06:23:28;94492.81;;;8.92;100.00
14067;BME280;7108;42.684;23.350;2022-11-24T06:25:56;94506.28;;;8.96;100.00
14067;BME280;7108;42.684;23.350;2022-11-24T06:28:22;94537.50;;;9.04;100.00
14067;BME280;7108;42.684;23.350;2022-11-24T06:30:48;94518.31;;;9.05;100.00
14067;BME280;7108;42.684;23.350;2022-11-24T06:33:13;94497.84;;;8.94;100.00
14067;BME280;7108;42.684;23.350;2022-11-24T06:35:38;94478.16;;;8.86;100.00
14067;BME280;7108;42.684;23.350;2022-11-24T06:38:04;94490.09;;;8.89;100.00
14067;BME280;7108;42.684;23.350;2022-11-24T06:40:30;94499.47;;;9.02;100.00
14067;BME280;7108;42.684;23.350;2022-11-24T06:42:55;94474.91;;;8.74;100.00
14067;BME280;7108;42.684;23.350;2022-11-24T06:45:21;94497.69;;;8.83;100.00
14067;BME280;7108;42.684;23.350;2022-11-24T06:47:47;94560.34;;;9.20;100.00
14067;BME280;7108;42.684;23.350;2022-11-24T06:50:13;94565.69;;;8.91;100.00
14067;BME280;7108;42.684;23.350;2022-11-24T06:52:38;94552.28;;;8.91;100.00
14067;BME280;7108;42.684;23.350;2022-11-24T06:55:04;94576.38;;;9.13;100.00
14067;BME280;7108;42.684;23.350;2022-11-24T06:57:29;94553.41;;;8.90;100.00
14067;BME280;7108;42.684;23.350;2022-11-24T06:59:55;94566.00;;;8.86;100.00
14067;BME280;7108;42.684;23.350;2022-11-24T07:02:22;94581.81;;;8.91;100.00
14067;BME280;7108;42.684;23.350;2022-11-24T07:04:48;94562.06;;;8.54;100.00
14067;BME280;7108;42.684;23.350;2022-11-24T07:07:13;94568.16;;;8.51;100.00
14067;BME280;7108;42.684;23.350;2022-11-24T07:09:39;94598.94;;;8.57;100.00
14067;BME280;7108;42.684;23.350;2022-11-24T07:12:04;94576.31;;;8.32;100.00
14067;BME280;7108;42.684;23.350;2022-11-24T07:14:30;94567.88;;;8.11;100.00
14067;BME280;7108;42.684;23.350;2022-11-24T07:16:56;94572.03;;;8.09;100.00
14067;BME280;7108;42.684;23.350;2022-11-24T07:19:21;94603.09;;;8.29;100.00
14067;BME280;7108;42.684;23.350;2022-11-24T07:21:47;94600.06;;;8.11;100.00
14067;BME280;7108;42.684;23.350;2022-11-24T07:24:12;94553.44;;;7.78;100.00
14067;BME280;7108;42.684;23.350;2022-11-24T07:26:38;94624.16;;;8.08;100.00
14067;BME280;7108;42.684;23.350;2022-11-24T07:29:04;94598.72;;;7.80;100.00
14067;BME280;7108;42.684;23.350;2022-11-24T07:31:30;94548.38;;;7.32;100.00
14067;BME280;7108;42.684;23.350;2022-11-24T07:33:55;94584.81;;;7.55;100.00
14067;BME280;7108;42.684;23.350;2022-11-24T07:36:22;94598.00;;;7.64;100.00
14067;BME280;7108;42.684;23.350;2022-11-24T07:38:50;94630.41;;;7.96;100.00
14067;BME280;7108;42.684;23.350;2022-11-24T07:41:17;94598.09;;;7.67;100.00
14067;BME280;7108;42.684;23.350;2022-11-24T07:43:44;94645.06;;;7.80;100.00
14067;BME280;7108;42.684;23.350;2022-11-24T07:46:12;94603.78;;;7.47;100.00
14067;BME280;7108;42.684;23.350;2022-11-24T07:48:38;94561.22;;;7.23;100.00
14067;BME280;7108;42.684;23.350;2022-11-24T07:51:05;94645.78;;;7.77;100.00
14067;BME280;7108;42.684;23.350;2022-11-24T07:53:31;94606.56;;;7.50;100.00
14067;BME280;7108;42.684;23.350;2022-11-24T07:56:01;94628.97;;;7.61;100.00
14067;BME280;7108;42.684;23.350;2022-11-24T07:58:28;94637.78;;;7.62;100.00
14067;BME280;7108;42.684;23.350;2022-11-24T08:00:54;94677.50;;;7.75;100.00
14067;BME280;7108;42.684;23.350;2022-11-24T08:03:20;94660.56;;;7.52;100.00
14067;BME280;7108;42.684;23.350;2022-11-24T08:05:57;94643.00;;;7.36;100.00
14067;BME280;7108;42.684;23.350;2022-11-24T08:08:25;94651.00;;;7.51;100.00
14067;BME280;7108;42.684;23.350;2022-11-24T08:10:51;94653.34;;;7.37;100.00
14067;BME280;7108;42.684;23.350;2022-11-24T08:13:17;94686.44;;;7.45;100.00
14067;BME280;7108;42.684;23.350;2022-11-24T08:15:43;94623.03;;;7.15;100.00
14067;BME280;7108;42.684;23.350;2022-11-24T08:18:08;94684.91;;;7.63;100.00
14067;BME280;7108;42.684;23.350;2022-11-24T08:20:34;94633.88;;;7.21;100.00
14067;BME280;7108;42.684;23.350;2022-11-24T08:23:00;94693.44;;;7.49;100.00
14067;BME280;7108;42.684;23.350;2022-11-24T08:25:26;94628.03;;;7.01;100.00
14067;BME280;7108;42.684;23.350;2022-11-24T08:28:01;94668.56;;;6.99;100.00
14067;BME280;7108;42.684;23.350;2022-11-24T08:30:27;94671.34;;;7.03;100.00
14067;BME280;7108;42.684;23.350;2022-11-24T08:32:53;94709.94;;;7.17;100.00
14067;BME280;7108;42.684;23.350;2022-11-24T08:35:18;94696.28;;;7.07;100.00
14067;BME280;7108;42.684;23.350;2022-11-24T08:37:44;94675.03;;;6.98;100.00
14067;BME280;7108;42.684;23.350;2022-11-24T08:40:10;94683.16;;;7.02;100.00
14067;BME280;7108;42.684;23.350;2022-11-24T08:42:36;94615.97;;;6.57;100.00
14067;BME280;7108;42.684;23.350;2022-11-24T08:45:02;94718.00;;;7.36;100.00
14067;BME280;7108;42.684;23.350;2022-11-24T08:47:27;94715.16;;;7.29;100.00
14067;BME280;7108;42.684;23.350;2022-11-24T08:49:53;94658.91;;;6.95;100.00
14067;BME280;7108;42.684;23.350;2022-11-24T08:52:18;94627.34;;;6.69;100.00
14067;BME280;7108;42.684;23.350;2022-11-24T08:54:44;94641.06;;;6.68;100.00
14067;BME280;7108;42.684;23.350;2022-11-24T08:57:12;94725.31;;;7.20;100.00
14067;BME280;7108;42.684;23.350;2022-11-24T08:59:38;94663.22;;;6.99;100.00
14067;BME280;7108;42.684;23.350;2022-11-24T09:02:03;94723.75;;;7.19;100.00
14067;BME280;7108;42.684;23.350;2022-11-24T09:04:30;94715.78;;;7.22;100.00
14067;BME280;7108;42.684;23.350;2022-11-24T09:06:57;94663.47;;;6.94;100.00
14067;BME280;7108;42.684;23.350;2022-11-24T09:09:22;94725.47;;;7.27;100.00
14067;BME280;7108;42.684;23.350;2022-11-24T09:11:47;94718.66;;;7.29;100.00
14067;BME280;7108;42.684;23.350;2022-11-24T09:14:14;94733.56;;;7.46;100.00
14067;BME280;7108;42.684;23.350;2022-11-24T09:16:40;94737.31;;;7.41;100.00
14067;BME280;7108;42.684;23.350;2022-11-24T09:19:09;94741.06;;;7.56;100.00
14067;BME280;7108;42.684;23.350;2022-11-24T09:21:35;94674.75;;;7.18;100.00
14067;BME280;7108;42.684;23.350;2022-11-24T09:24:04;94739.66;;;7.62;100.00
14067;BME280;7108;42.684;23.350;2022-11-24T09:26:33;94715.50;;;7.43;100.00
14067;BME280;7108;42.684;23.350;2022-11-24T09:29:00;94746.53;;;7.44;100.00
14067;BME280;7108;42.684;23.350;2022-11-24T09:31:28;94729.63;;;7.24;100.00
14067;BME280;7108;42.684;23.350;2022-11-24T09:33:54;94728.91;;;7.27;100.00
14067;BME280;7108;42.684;23.350;2022-11-24T09:36:20;94714.13;;;7.33;100.00
14067;BME280;7108;42.684;23.350;2022-11-24T09:38:45;94704.44;;;7.29;100.00
14067;BME280;7108;42.684;23.350;2022-11-24T09:44:09;94746.69;;;7.51;100.00
14067;BME280;7108;42.684;23.350;2022-11-24T09:49:31;94698.44;;;7.16;100.00
14067;BME280;7108;42.684;23.350;2022-11-24T09:52:01;94754.59;;;7.28;100.00
14067;BME280;7108;42.684;23.350;2022-11-24T09:54:28;94744.31;;;7.30;100.00
14067;BME280;7108;42.684;23.350;2022-11-24T09:56:59;94744.09;;;7.39;100.00
14067;BME280;7108;42.684;23.350;2022-11-24T09:59:26;94761.66;;;7.36;100.00
14067;BME280;7108;42.684;23.350;2022-11-24T10:01:52;94748.69;;;7.38;100.00
14067;BME280;7108;42.684;23.350;2022-11-24T10:04:21;94755.09;;;7.49;100.00
14067;BME280;7108;42.684;23.350;2022-11-24T10:09:48;94761.19;;;7.00;100.00
14067;BME280;7108;42.684;23.350;2022-11-24T10:15:33;94758.06;;;6.98;100.00
14067;BME280;7108;42.684;23.350;2022-11-24T10:26:34;94760.47;;;6.72;100.00
14067;BME280;7108;42.684;23.350;2022-11-24T10:29:05;94736.22;;;6.65;100.00
14067;BME280;7108;42.684;23.350;2022-11-24T10:31:37;94764.91;;;6.80;100.00
14067;BME280;7108;42.684;23.350;2022-11-24T10:34:16;94766.00;;;6.79;100.00
14067;BME280;7108;42.684;23.350;2022-11-24T10:42:25;94769.34;;;6.61;100.00
14067;BME280;7108;42.684;23.350;2022-11-24T10:45:14;94776.38;;;6.65;100.00
14067;BME280;7108;42.684;23.350;2022-11-24T10:47:41;94739.38;;;6.40;100.00
14067;BME280;7108;42.684;23.350;2022-11-24T10:50:19;94762.44;;;6.60;100.00
14067;BME280;7108;42.684;23.350;2022-11-24T10:53:10;94773.75;;;6.53;100.00
14067;BME280;7108;42.684;23.350;2022-11-24T10:55:56;94771.72;;;6.35;100.00
14067;BME280;7108;42.684;23.350;2022-11-24T10:58:28;94756.63;;;6.27;100.00
14067;BME280;7108;42.684;23.350;2022-11-24T11:00:55;94756.38;;;6.32;100.00
14067;BME280;7108;42.684;23.350;2022-11-24T11:03:32;94771.66;;;6.47;100.00
14067;BME280;7108;42.684;23.350;2022-11-24T11:06:14;94777.13;;;6.51;100.00
14067;BME280;7108;42.684;23.350;2022-11-24T11:08:40;94777.72;;;6.59;100.00
14067;BME280;7108;42.684;23.350;2022-11-24T11:11:20;94766.56;;;6.42;100.00
14067;BME280;7108;42.684;23.350;2022-11-24T11:13:50;94782.41;;;6.35;100.00
14067;BME280;7108;42.684;23.350;2022-11-24T11:18:52;94786.66;;;6.36;100.00
14067;BME280;7108;42.684;23.350;2022-11-24T11:21:35;94730.06;;;6.07;100.00
14067;BME280;7108;42.684;23.350;2022-11-24T11:24:15;94790.72;;;6.46;100.00
14067;BME280;7108;42.684;23.350;2022-11-24T11:26:42;94739.41;;;6.28;100.00
14067;BME280;7108;42.684;23.350;2022-11-24T11:29:12;94781.06;;;6.56;100.00
14067;BME280;7108;42.684;23.350;2022-11-24T11:31:39;94778.66;;;6.51;100.00
14067;BME280;7108;42.684;23.350;2022-11-24T11:36:35;94789.34;;;6.51;100.00
14067;BME280;7108;42.684;23.350;2022-11-24T11:39:03;94786.16;;;6.46;100.00
14067;BME280;7108;42.684;23.350;2022-11-24T11:41:40;94808.53;;;6.53;100.00
14067;BME280;7108;42.684;23.350;2022-11-24T11:46:53;94763.41;;;6.52;100.00
14067;BME280;7108;42.684;23.350;2022-11-24T11:49:21;94714.94;;;6.26;100.00
14067;BME280;7108;42.684;23.350;2022-11-24T11:52:13;94790.25;;;6.71;100.00
14067;BME280;7108;42.684;23.350;2022-11-24T11:57:25;94773.38;;;6.40;100.00
14067;BME280;7108;42.684;23.350;2022-11-24T12:11:04;94781.81;;;6.84;100.00
14067;BME280;7108;42.684;23.350;2022-11-24T12:24:47;94793.84;;;7.21;100.00
14067;BME280;7108;42.684;23.350;2022-11-24T12:30:15;94787.44;;;6.95;100.00
14067;BME280;7108;42.684;23.350;2022-11-24T12:33:39;94793.56;;;6.95;100.00
14067;BME280;7108;42.684;23.350;2022-11-24T12:36:05;94807.31;;;6.94;100.00
14067;BME280;7108;42.684;23.350;2022-11-24T12:38:47;94808.53;;;6.96;100.00
14067;BME280;7108;42.684;23.350;2022-11-24T12:41:42;94805.25;;;7.03;100.00
14067;BME280;7108;42.684;23.350;2022-11-24T12:44:48;94814.91;;;6.92;100.00
14067;BME280;7108;42.684;23.350;2022-11-24T12:47:29;94809.28;;;6.97;100.00
14067;BME280;7108;42.684;23.350;2022-11-24T12:52:45;94799.53;;;7.04;100.00
14067;BME280;7108;42.684;23.350;2022-11-24T12:55:16;94811.09;;;7.08;100.00
14067;BME280;7108;42.684;23.350;2022-11-24T12:58:04;94771.81;;;6.81;100.00
14067;BME280;7108;42.684;23.350;2022-11-24T13:01:06;94807.13;;;6.87;100.00
14067;BME280;7108;42.684;23.350;2022-11-24T13:03:59;94794.50;;;6.72;100.00
14067;BME280;7108;42.684;23.350;2022-11-24T13:06:39;94813.09;;;6.80;100.00
14067;BME280;7108;42.684;23.350;2022-11-24T13:09:10;94801.16;;;6.78;100.00
14067;BME280;7108;42.684;23.350;2022-11-24T13:11:37;94823.25;;;6.75;100.00
14067;BME280;7108;42.684;23.350;2022-11-24T13:16:51;94830.72;;;6.81;100.00
14067;BME280;7108;42.684;23.350;2022-11-24T13:19:20;94809.63;;;6.80;100.00
14067;BME280;7108;42.684;23.350;2022-11-24T13:26:45;94826.31;;;6.89;100.00
14067;BME280;7108;42.684;23.350;2022-11-24T13:29:33;94795.47;;;6.79;100.00
14067;BME280;7108;42.684;23.350;2022-11-24T13:42:30;94829.34;;;7.03;100.00
14067;BME280;7108;42.684;23.350;2022-11-24T13:53:35;94829.59;;;7.13;100.00
14067;BME280;7108;42.684;23.350;2022-11-24T13:56:22;94810.09;;;6.97;100.00
14067;BME280;7108;42.684;23.350;2022-11-24T13:58:57;94826.41;;;7.08;100.00
14067;BME280;7108;42.684;23.350;2022-11-24T14:01:24;94837.81;;;7.05;100.00
14067;BME280;7108;42.684;23.350;2022-11-24T14:04:19;94839.63;;;7.01;100.00
14067;BME280;7108;42.684;23.350;2022-11-24T14:09:43;94856.63;;;6.93;100.00
14067;BME280;7108;42.684;23.350;2022-11-24T14:12:16;94855.50;;;6.94;100.00
14067;BME280;7108;42.684;23.350;2022-11-24T14:14:44;94858.28;;;6.97;100.00
14067;BME280;7108;42.684;23.350;2022-11-24T14:17:19;94834.09;;;6.94;100.00
14067;BME280;7108;42.684;23.350;2022-11-24T14:19:48;94850.50;;;7.08;100.00
14067;BME280;7108;42.684;23.350;2022-11-24T14:22:21;94855.63;;;7.13;100.00
14067;BME280;7108;42.684;23.350;2022-11-24T14:24:53;94849.41;;;7.09;100.00
14067;BME280;7108;42.684;23.350;2022-11-24T14:27:27;94854.34;;;7.22;100.00
14067;BME280;7108;42.684;23.350;2022-11-24T14:29:55;94833.84;;;7.14;100.00
14067;BME280;7108;42.684;23.350;2022-11-24T14:32:21;94856.31;;;7.25;100.00
14067;BME280;7108;42.684;23.350;2022-11-24T14:34:46;94826.59;;;7.15;100.00
14067;BME280;7108;42.684;23.350;2022-11-24T14:37:12;94823.56;;;7.16;100.00
14067;BME280;7108;42.684;23.350;2022-11-24T14:39:41;94837.56;;;7.25;100.00
14067;BME280;7108;42.684;23.350;2022-11-24T14:42:19;94851.28;;;7.39;100.00
14067;BME280;7108;42.684;23.350;2022-11-24T14:49:43;94827.81;;;7.17;100.00
14067;BME280;7108;42.684;23.350;2022-11-24T14:52:12;94851.38;;;7.12;100.00
14067;BME280;7108;42.684;23.350;2022-11-24T14:54:55;94807.47;;;7.01;100.00
14067;BME280;7108;42.684;23.350;2022-11-24T14:57:34;94840.00;;;7.15;100.00